Time;durP1;ratioP1;P1;durP2;ratioP2;P2;SDS_P1;SDS_P2;PMS_P1;PMS_P2;Temp;Humidity;BMP_temperature;BMP_pressure;BME280_temperature;BME280_humidity;BME280_pressure;Samples;Min_cycle;Max_cycle;Signal;HPM_P1;HPM_P2
2022/01/05 00:02:14;;;;;;;44.63;29.80;;;;;;;7.36;73.34;98995.06;5052157;28;20241;-58
2022/01/05 00:04:41;;;;;;;33.53;23.80;;;;;;;7.34;73.28;98987.34;5051996;28;20287;-57
2022/01/05 00:07:08;;;;;;;29.40;19.43;;;;;;;7.31;72.36;98982.19;5051950;28;20196;-57
2022/01/05 00:09:35;;;;;;;28.80;19.27;;;;;;;7.28;71.83;99001.72;5052086;28;20563;-57
2022/01/05 00:12:02;;;;;;;36.53;21.73;;;;;;;7.33;71.89;98995.88;5051812;28;20198;-57
2022/01/05 00:14:30;;;;;;;30.40;21.27;;;;;;;7.23;72.69;98998.19;5051729;28;20280;-57
2022/01/05 00:16:57;;;;;;;30.20;20.83;;;;;;;7.20;72.57;98998.97;5051586;28;20305;-57
2022/01/05 00:19:24;;;;;;;23.80;18.87;;;;;;;7.18;72.20;99002.34;5051515;28;20290;-57
2022/01/05 00:21:51;;;;;;;27.07;19.60;;;;;;;7.17;72.32;99008.28;5051626;28;20191;-57
2022/01/05 00:24:18;;;;;;;29.03;18.73;;;;;;;7.13;71.64;99002.25;5051526;28;20198;-57
2022/01/05 00:26:45;;;;;;;23.23;18.93;;;;;;;6.92;72.37;98979.63;5051652;28;20196;-57
2022/01/05 00:29:12;;;;;;;31.27;20.10;;;;;;;6.97;73.12;99001.06;5051380;28;20226;-57
2022/01/05 00:31:40;;;;;;;28.70;19.17;;;;;;;7.01;73.40;99001.97;5051511;28;20212;-57
2022/01/05 00:34:07;;;;;;;26.83;19.37;;;;;;;7.04;72.22;99007.16;5051380;28;20192;-57
2022/01/05 00:36:34;;;;;;;27.47;19.00;;;;;;;7.05;72.34;99002.09;5051182;28;20208;-57
2022/01/05 00:39:01;;;;;;;25.67;19.73;;;;;;;7.07;72.04;99005.53;5051520;28;20204;-57
2022/01/05 00:41:28;;;;;;;24.73;18.97;;;;;;;7.06;72.29;99000.38;5051265;28;20616;-58
2022/01/05 00:43:55;;;;;;;28.10;18.60;;;;;;;7.05;72.06;99004.63;5051209;28;20201;-57
2022/01/05 00:46:22;;;;;;;26.67;19.00;;;;;;;6.97;72.12;98993.41;5051227;28;20190;-58
2022/01/05 00:48:50;;;;;;;24.03;17.70;;;;;;;7.08;72.41;99004.72;5051418;28;20203;-58
2022/01/05 00:51:17;;;;;;;24.67;18.80;;;;;;;7.05;72.36;99003.78;5050915;28;20196;-58
2022/01/05 00:53:44;;;;;;;28.17;19.77;;;;;;;7.02;71.90;99001.16;5051144;28;20205;-58
2022/01/05 00:56:11;;;;;;;26.83;19.00;;;;;;;7.05;71.95;99003.78;5050938;28;20682;-57
2022/01/05 00:58:38;;;;;;;28.97;19.37;;;;;;;7.02;72.17;99008.81;5050623;28;20225;-58
2022/01/05 01:01:05;;;;;;;27.33;20.53;;;;;;;6.99;72.14;99001.94;5050988;28;20643;-57
2022/01/05 01:03:32;;;;;;;28.60;21.27;;;;;;;6.97;72.68;98993.41;5051176;28;20199;-57
2022/01/05 01:06:00;;;;;;;27.47;19.87;;;;;;;6.88;73.03;98995.72;5051094;28;20281;-57
2022/01/05 01:08:28;;;;;;;32.67;19.83;;;;;;;6.89;72.88;98988.94;5050847;28;20185;-57
2022/01/05 01:10:55;;;;;;;34.23;22.33;;;;;;;6.89;73.00;98989.81;5051124;28;20195;-57
2022/01/05 01:13:22;;;;;;;27.90;20.53;;;;;;;6.83;73.76;98984.56;5050961;28;20198;-57
2022/01/05 01:15:50;;;;;;;32.07;22.13;;;;;;;6.83;73.57;98994.78;5050859;28;20322;-58
2022/01/05 01:18:18;;;;;;;30.23;21.10;;;;;;;6.85;73.29;98984.56;5050453;28;20304;-57
2022/01/05 01:20:47;;;;;;;28.50;21.03;;;;;;;6.83;73.91;98979.44;5050590;28;20769;-58
2022/01/05 01:23:18;;;;;;;28.40;21.67;;;;;;;6.81;74.01;98975.13;5050645;28;20199;-57
2022/01/05 01:25:45;;;;;;;28.10;21.53;;;;;;;6.88;73.55;98969.34;5050482;28;20193;-57
2022/01/05 01:28:12;;;;;;;33.23;21.77;;;;;;;6.90;72.95;98955.75;5050416;28;20234;-57
2022/01/05 01:30:39;;;;;;;33.57;23.30;;;;;;;6.90;72.75;98963.44;5050541;28;20203;-58
2022/01/05 01:33:06;;;;;;;29.63;21.23;;;;;;;6.88;72.42;98959.13;5050597;28;20285;-57
2022/01/05 01:35:34;;;;;;;31.53;22.60;;;;;;;6.89;72.15;98953.19;5050357;28;20667;-58
2022/01/05 01:38:00;;;;;;;30.40;20.87;;;;;;;6.66;72.95;98926.28;5050434;28;20213;-58
2022/01/05 01:40:29;;;;;;;31.03;22.63;;;;;;;6.82;72.10;98966.63;5050275;28;20683;-57
2022/01/05 01:42:56;;;;;;;34.60;22.97;;;;;;;6.79;72.17;98971.66;5050066;28;20198;-57
2022/01/05 01:45:23;;;;;;;30.10;21.27;;;;;;;6.80;72.48;98966.63;5050264;28;20206;-58
2022/01/05 01:47:50;;;;;;;31.33;21.67;;;;;;;6.62;72.86;98939.81;5050254;28;20656;-57
2022/01/05 01:50:16;;;;;;;28.43;20.43;;;;;;;6.69;72.66;98964.63;5050126;28;20201;-57
2022/01/05 01:52:43;;;;;;;32.22;24.42;;;;;;;6.76;72.49;98953.72;5048909;28;20522;-58
2022/01/05 01:55:12;;;;;;;26.33;20.90;;;;;;;6.77;72.70;98958.88;5050159;28;20211;-57
2022/01/05 01:57:43;;;;;;;33.60;21.57;;;;;;;6.75;72.53;98963.09;5049995;28;20233;-58
2022/01/05 02:00:11;;;;;;;30.37;20.30;;;;;;;6.66;73.26;98959.47;5050055;28;20194;-57
2022/01/05 02:02:38;;;;;;;27.17;20.40;;;;;;;6.55;72.84;98949.00;5050069;28;20195;-58
2022/01/05 02:05:06;;;;;;;30.67;23.30;;;;;;;6.49;73.85;98942.06;5049580;28;20440;-58
2022/01/05 02:07:33;;;;;;;30.60;22.30;;;;;;;6.57;72.90;98949.03;5049965;28;20188;-58
2022/01/05 02:10:01;;;;;;;29.77;20.33;;;;;;;6.60;73.85;98946.56;5050000;28;20661;-57
2022/01/05 02:12:30;;;;;;;31.60;22.47;;;;;;;6.51;73.77;98950.63;5050247;28;20286;-57
2022/01/05 02:14:58;;;;;;;32.13;20.63;;;;;;;6.50;73.47;98946.38;5066661;28;20198;-57
2022/01/05 02:17:41;;;;;;;29.67;21.17;;;;;;;6.52;72.93;98944.69;5070379;28;20228;-57
2022/01/05 02:20:13;;;;;;;30.33;20.10;;;;;;;6.48;73.79;98942.06;5070018;28;20194;-57
2022/01/05 02:22:42;;;;;;;27.77;20.30;;;;;;;6.47;73.73;98946.28;5070395;28;20229;-57
2022/01/05 02:25:09;;;;;;;27.63;20.33;;;;;;;6.24;73.92;98909.16;5069873;28;20664;-58
2022/01/05 02:27:39;;;;;;;30.23;20.57;;;;;;;6.38;74.26;98937.53;5069652;28;20233;-58
2022/01/05 02:30:06;;;;;;;26.57;19.60;;;;;;;6.30;73.67;98942.47;5070017;28;20197;-58
2022/01/05 02:32:33;;;;;;;27.27;20.73;;;;;;;6.30;74.32;98947.56;5069813;28;20277;-58
2022/01/05 02:35:00;;;;;;;29.20;19.93;;;;;;;6.28;74.13;98946.69;5070116;28;20212;-57
2022/01/05 02:37:27;;;;;;;31.55;23.70;;;;;;;6.27;75.08;98956.81;5069011;28;20532;-57
2022/01/05 02:39:55;;;;;;;31.47;20.80;;;;;;;6.26;74.34;98940.66;5069952;28;20189;-58
2022/01/05 02:42:26;;;;;;;28.97;21.00;;;;;;;6.15;74.60;98948.91;5069806;28;20682;-57
2022/01/05 02:44:54;;;;;;;25.47;19.83;;;;;;;6.11;75.48;98947.94;5069240;28;20202;-58
2022/01/05 02:47:21;;;;;;;30.73;19.47;;;;;;;6.09;75.39;98952.16;5069752;28;20197;-57
2022/01/05 02:49:48;;;;;;;32.77;20.37;;;;;;;6.05;75.90;98950.34;5069649;28;20197;-58
2022/01/05 02:52:14;;;;;;;29.87;19.97;;;;;;;6.08;75.67;98949.56;5069923;28;20198;-58
2022/01/05 02:54:41;;;;;;;26.27;19.93;;;;;;;5.92;76.87;98950.84;5069822;28;20197;-58
2022/01/05 02:57:10;;;;;;;24.23;18.80;;;;;;;5.94;77.22;98941.56;5069941;28;20594;-58
2022/01/05 02:59:37;;;;;;;28.13;18.37;;;;;;;5.81;76.59;98919.09;5069541;28;20284;-58
2022/01/05 03:02:04;;;;;;;27.57;19.27;;;;;;;5.87;77.33;98932.91;5069564;28;20193;-58
2022/01/05 03:04:31;;;;;;;26.40;18.53;;;;;;;5.83;77.96;98928.50;5069433;28;20192;-57
2022/01/05 03:06:58;;;;;;;24.60;18.43;;;;;;;5.74;77.87;98929.97;5073126;28;20582;-57
2022/01/05 03:09:25;;;;;;;26.37;18.70;;;;;;;5.79;77.84;98931.81;5073123;28;20275;-58
2022/01/05 03:11:52;;;;;;;25.67;18.00;;;;;;;5.86;77.27;98928.63;5073187;28;20197;-58
2022/01/05 03:14:21;;;;;;;23.57;17.80;;;;;;;5.87;77.71;98925.25;5072709;28;20278;-57
2022/01/05 03:16:48;;;;;;;26.30;16.43;;;;;;;5.88;77.77;98931.19;5072705;28;20189;-58
2022/01/05 03:19:15;;;;;;;23.40;15.83;;;;;;;5.97;77.31;98935.66;5073062;28;20227;-58
2022/01/05 03:21:42;;;;;;;22.40;16.20;;;;;;;6.00;76.99;98940.84;5072980;28;20219;-58
2022/01/05 03:24:09;;;;;;;24.30;16.90;;;;;;;5.98;77.10;98920.44;5072731;28;20284;-57
2022/01/05 03:26:36;;;;;;;22.40;16.23;;;;;;;5.99;77.48;98919.59;5072853;28;20197;-58
2022/01/05 03:29:03;;;;;;;24.50;15.37;;;;;;;6.02;76.73;98917.13;5072391;28;20229;-58
2022/01/05 03:31:31;;;;;;;21.93;14.53;;;;;;;6.00;77.07;98910.25;5072887;28;20279;-58
2022/01/05 03:33:58;;;;;;;22.40;15.10;;;;;;;6.01;77.35;98907.75;5072832;28;20281;-58
2022/01/05 03:36:25;;;;;;;24.33;16.30;;;;;;;5.98;76.59;98917.88;5072616;28;20189;-58
2022/01/05 03:38:52;;;;;;;23.80;16.60;;;;;;;5.99;76.95;98913.66;5072715;28;20691;-59
2022/01/05 03:41:19;;;;;;;23.60;17.03;;;;;;;5.89;77.87;98921.06;5072536;28;20591;-58
2022/01/05 03:43:46;;;;;;;23.83;17.37;;;;;;;5.85;77.65;98915.84;5072746;28;20195;-57
2022/01/05 03:46:12;;;;;;;25.30;17.07;;;;;;;5.68;78.62;98910.28;5072886;28;20198;-57
2022/01/05 03:48:41;;;;;;;27.50;17.83;;;;;;;5.61;78.98;98910.06;5072235;28;20657;-56
2022/01/05 03:51:08;;;;;;;29.03;16.83;;;;;;;5.64;78.73;98913.56;5072215;28;20187;-56
2022/01/05 03:53:35;;;;;;;21.07;15.67;;;;;;;5.56;78.42;98904.00;5072475;28;20272;-57
2022/01/05 03:56:03;;;;;;;27.60;16.13;;;;;;;5.56;79.39;98902.31;5072214;28;20200;-56
2022/01/05 03:58:29;;;;;;;21.90;15.97;;;;;;;5.46;79.30;98896.94;5072404;28;20278;-57
2022/01/05 04:00:56;;;;;;;22.30;16.90;;;;;;;5.42;79.52;98897.66;5072252;28;20289;-57
2022/01/05 04:03:23;;;;;;;23.30;16.57;;;;;;;5.37;79.10;98889.91;5071976;28;20195;-57
2022/01/05 04:05:52;;;;;;;25.77;17.77;;;;;;;5.22;79.75;98892.03;5071980;28;20198;-57
2022/01/05 04:08:19;;;;;;;24.63;17.40;;;;;;;5.17;79.56;98891.91;5071741;28;20188;-58
2022/01/05 04:10:46;;;;;;;23.23;15.80;;;;;;;5.15;80.64;98901.19;5071475;28;20282;-60
2022/01/05 04:13:14;;;;;;;23.77;16.23;;;;;;;5.18;80.51;98908.06;5071889;28;20279;-57
2022/01/05 04:15:41;;;;;;;22.30;15.80;;;;;;;5.08;81.02;98908.63;5071491;28;20566;-57
2022/01/05 04:18:08;;;;;;;20.43;15.23;;;;;;;5.15;81.51;98903.75;5071425;28;20208;-57
2022/01/05 04:20:35;;;;;;;25.47;18.53;;;;;;;5.19;81.23;98899.59;5070936;28;20871;-58
2022/01/05 04:23:03;;;;;;;24.97;16.67;;;;;;;5.15;80.23;98873.19;5071319;28;20680;-57
2022/01/05 04:25:31;;;;;;;25.13;15.50;;;;;;;5.31;80.48;98898.25;5068749;28;20189;-57
2022/01/05 04:27:58;;;;;;;19.97;15.07;;;;;;;5.32;80.29;98907.63;5071204;28;20963;-58
2022/01/05 04:30:25;;;;;;;20.97;15.10;;;;;;;5.31;79.97;98908.44;5072473;28;20256;-58
2022/01/05 04:32:52;;;;;;;20.10;14.67;;;;;;;5.31;80.04;98902.47;5075347;28;20208;-57
2022/01/05 04:35:19;;;;;;;22.13;15.67;;;;;;;5.30;79.97;98911.78;5076173;28;20202;-57
2022/01/05 04:37:46;;;;;;;22.37;15.37;;;;;;;5.36;80.00;98914.50;5073139;28;20317;-59
2022/01/05 04:40:14;;;;;;;24.23;17.17;;;;;;;5.25;80.18;98910.81;5079751;28;20312;-57
2022/01/05 04:42:41;;;;;;;31.63;22.07;;;;;;;5.12;80.20;98907.88;5076433;28;20214;-57
2022/01/05 04:45:09;;;;;;;32.27;24.00;;;;;;;4.73;81.21;98912.69;5070964;28;20203;-57
2022/01/05 04:47:36;;;;;;;29.77;22.23;;;;;;;4.72;82.70;98921.97;5071247;28;20192;-58
2022/01/05 04:50:04;;;;;;;29.10;20.97;;;;;;;4.78;82.83;98916.22;5070960;28;20738;-58
2022/01/05 04:52:31;;;;;;;29.43;20.23;;;;;;;4.74;82.30;98911.88;5071148;28;20736;-58
2022/01/05 04:54:58;;;;;;;27.87;20.33;;;;;;;4.77;81.92;98929.78;5071137;28;20200;-58
2022/01/05 04:57:26;;;;;;;30.80;21.97;;;;;;;4.44;83.66;98918.56;5070752;28;20193;-58
2022/01/05 04:59:53;;;;;;;31.03;21.53;;;;;;;4.19;83.98;98848.31;5070733;28;20219;-58
2022/01/05 05:02:20;;;;;;;28.20;20.70;;;;;;;4.75;82.56;98939.06;5070693;28;20292;-58
2022/01/05 05:04:47;;;;;;;28.33;19.10;;;;;;;4.78;82.67;98937.44;5070565;28;20203;-58
2022/01/05 05:07:14;;;;;;;32.03;22.85;;;;;;;4.93;82.48;98936.16;5069931;28;20521;-58
2022/01/05 05:09:41;;;;;;;30.57;20.63;;;;;;;5.05;81.81;98926.34;5070712;28;20283;-57
2022/01/05 05:12:09;;;;;;;28.50;19.43;;;;;;;5.08;81.48;98927.28;5070680;28;20200;-57
2022/01/05 05:14:37;;;;;;;25.30;18.80;;;;;;;5.07;80.46;98930.69;5070722;28;20201;-58
2022/01/05 05:17:05;;;;;;;25.33;18.43;;;;;;;5.11;80.70;98929.94;5070256;28;20191;-59
2022/01/05 05:19:32;;;;;;;26.57;18.20;;;;;;;5.11;80.74;98924.84;5070298;28;20221;-58
2022/01/05 05:21:59;;;;;;;21.43;16.70;;;;;;;5.15;81.06;98924.13;5070567;28;20258;-58
2022/01/05 05:24:26;;;;;;;24.70;17.23;;;;;;;5.18;80.70;98916.56;5070372;28;20283;-58
2022/01/05 05:26:53;;;;;;;26.50;18.70;;;;;;;5.17;80.01;98924.16;5070163;28;20280;-58
2022/01/05 05:29:20;;;;;;;31.20;21.53;;;;;;;5.24;80.71;98928.59;5069769;28;20202;-58
2022/01/05 05:31:48;;;;;;;28.23;18.33;;;;;;;5.16;80.63;98920.75;5070429;28;20574;-58
2022/01/05 05:34:15;;;;;;;36.80;18.93;;;;;;;5.08;80.42;98911.19;5070548;28;20220;-57
2022/01/05 05:36:42;;;;;;;28.20;19.60;;;;;;;5.18;80.72;98934.38;5070115;28;20199;-58
2022/01/05 05:39:09;;;;;;;29.63;21.10;;;;;;;5.20;79.85;98942.94;5070375;28;20220;-57
2022/01/05 05:41:36;;;;;;;27.00;19.43;;;;;;;5.22;80.14;98937.88;5070077;28;20304;-58
2022/01/05 05:44:02;;;;;;;24.00;15.97;;;;;;;5.23;79.92;98942.16;5070170;28;20648;-58
2022/01/05 05:46:29;;;;;;;23.70;15.33;;;;;;;5.21;80.16;98941.25;5070368;28;20546;-58
2022/01/05 05:48:58;;;;;;;25.57;17.07;;;;;;;5.19;80.09;98946.28;5070351;28;20274;-58
2022/01/05 05:51:24;;;;;;;25.77;16.77;;;;;;;5.07;80.32;98925.59;5070132;28;20276;-58
2022/01/05 05:53:51;;;;;;;22.93;17.13;;;;;;;5.20;80.56;98954.78;5070130;28;20193;-58
2022/01/05 05:56:18;;;;;;;28.20;18.27;;;;;;;5.17;80.74;98962.34;5070181;28;20232;-58
2022/01/05 05:58:45;;;;;;;30.20;19.00;;;;;;;5.20;80.55;98962.44;5069921;28;20216;-58
2022/01/05 06:01:12;;;;;;;30.30;19.23;;;;;;;5.24;80.46;98961.72;5069814;28;20203;-58
2022/01/05 06:03:39;;;;;;;36.53;21.17;;;;;;;5.05;81.34;98962.88;5069013;28;20190;-59
2022/01/05 06:06:07;;;;;;;26.20;19.43;;;;;;;4.97;80.66;98961.75;5074450;28;20192;-58
2022/01/05 06:08:34;;;;;;;27.57;18.77;;;;;;;5.07;81.48;98973.94;5068722;28;21403;-58
2022/01/05 06:11:01;;;;;;;33.50;20.70;;;;;;;5.01;81.17;98971.22;5078291;28;20280;-58
2022/01/05 06:13:28;;;;;;;31.57;19.37;;;;;;;4.93;81.54;98957.41;5073027;28;20200;-58
2022/01/05 06:15:55;;;;;;;26.83;20.13;;;;;;;5.09;81.63;98979.94;5079232;28;20180;-59
2022/01/05 06:18:22;;;;;;;28.13;19.27;;;;;;;5.10;80.21;98980.81;5075583;28;20187;-59
2022/01/05 06:20:49;;;;;;;22.37;16.50;;;;;;;5.00;81.17;98971.19;5079246;28;20191;-58
2022/01/05 06:23:17;;;;;;;26.40;16.73;;;;;;;4.87;81.07;98985.22;5078284;28;20180;-57
2022/01/05 06:25:44;;;;;;;29.37;17.67;;;;;;;4.89;81.27;98986.09;5078560;28;20213;-59
2022/01/05 06:28:12;;;;;;;26.20;18.40;;;;;;;4.97;81.14;98983.81;5078603;28;20322;-58
2022/01/05 06:30:39;;;;;;;24.10;16.63;;;;;;;5.00;81.62;98983.91;5071483;28;20188;-58
2022/01/05 06:33:06;;;;;;;28.07;18.10;;;;;;;5.03;81.44;98984.84;5069201;28;20188;-58
2022/01/05 06:35:33;;;;;;;26.20;17.83;;;;;;;5.11;80.93;98990.19;5068722;28;20197;-58
2022/01/05 06:38:01;;;;;;;28.73;18.53;;;;;;;5.06;81.68;98992.56;5067040;28;20212;-58
2022/01/05 06:40:29;;;;;;;31.73;19.40;;;;;;;5.16;80.96;98998.81;5071944;28;20216;-58
2022/01/05 06:42:56;;;;;;;31.30;19.47;;;;;;;5.62;82.43;99008.63;5073016;28;20662;-58
2022/01/05 06:45:23;;;;;;;29.10;21.27;;;;;;;6.90;77.54;99011.06;5073448;28;20219;-58
2022/01/05 06:47:50;;;;;;;31.07;22.43;;;;;;;6.90;73.57;99009.38;5072918;28;20195;-58
2022/01/05 06:50:17;;;;;;;35.50;24.00;;;;;;;6.35;74.22;99001.25;5072955;28;20184;-59
2022/01/05 06:52:44;;;;;;;33.30;23.23;;;;;;;5.81;75.94;98942.03;5072965;28;20202;-58
2022/01/05 06:55:11;;;;;;;35.67;23.33;;;;;;;6.27;76.21;99012.94;5073068;28;20191;-58
2022/01/05 06:57:41;;;;;;;40.20;23.73;;;;;;;6.68;75.90;99013.94;5072475;28;20198;-58
2022/01/05 07:00:10;;;;;;;38.63;25.97;;;;;;;6.74;74.10;99014.09;5072429;28;20322;-58
2022/01/05 07:02:37;;;;;;;34.83;24.13;;;;;;;6.52;74.04;99013.59;5072932;28;20183;-58
2022/01/05 07:05:05;;;;;;;33.40;24.63;;;;;;;6.38;75.51;99019.19;5072912;28;20593;-58
2022/01/05 07:07:32;;;;;;;34.03;24.57;;;;;;;6.29;76.21;99027.47;5072790;28;20507;-58
2022/01/05 07:09:59;;;;;;;33.50;22.70;;;;;;;6.25;76.86;99022.25;5072985;28;20288;-58
2022/01/05 07:12:26;;;;;;;28.67;21.07;;;;;;;6.35;77.80;99024.19;5072832;28;20265;-57
2022/01/05 07:14:54;;;;;;;26.20;20.23;;;;;;;6.88;77.39;99023.81;5072827;28;20279;-57
2022/01/05 07:17:21;;;;;;;31.73;21.17;;;;;;;7.14;74.66;99032.09;5072693;28;20280;-58
2022/01/05 07:19:48;;;;;;;28.80;21.43;;;;;;;6.99;74.79;99014.72;5072738;28;20311;-60
2022/01/05 07:22:15;;;;;;;29.47;20.87;;;;;;;6.73;76.17;99008.13;5072813;28;20698;-57
2022/01/05 07:24:42;;;;;;;32.08;24.33;;;;;;;6.67;76.83;99002.91;5071786;28;20471;-57
2022/01/05 07:27:09;;;;;;;27.60;20.37;;;;;;;6.66;78.26;99005.41;5072581;28;20760;-58
2022/01/05 07:29:36;;;;;;;30.37;22.07;;;;;;;6.65;77.87;99001.97;5072647;28;20241;-58
2022/01/05 07:32:05;;;;;;;27.07;20.23;;;;;;;6.69;78.76;99000.38;5071996;28;20286;-58
2022/01/05 07:34:32;;;;;;;28.20;20.40;;;;;;;6.64;78.46;99007.06;5072126;28;20272;-58
2022/01/05 07:36:59;;;;;;;29.37;21.20;;;;;;;6.69;78.31;99002.94;5072457;28;20198;-58
2022/01/05 07:39:26;;;;;;;33.37;20.30;;;;;;;6.71;78.63;99009.78;5071965;28;20585;-58
2022/01/05 07:41:55;;;;;;;28.60;19.40;;;;;;;6.75;78.71;99011.59;5072326;28;20190;-58
2022/01/05 07:44:22;;;;;;;25.10;18.53;;;;;;;6.66;78.41;99013.06;5071714;28;20292;-59
2022/01/05 07:46:48;;;;;;;22.73;18.50;;;;;;;6.66;78.00;99007.97;5071862;28;20806;-58
2022/01/05 07:49:17;;;;;;;24.60;18.80;;;;;;;6.68;78.02;99027.59;5072193;28;20563;-58
2022/01/05 07:51:44;;;;;;;28.70;19.63;;;;;;;6.69;78.03;99013.13;5071003;28;20434;-58
2022/01/05 07:54:10;;;;;;;28.80;20.47;;;;;;;6.77;77.30;99011.63;5071846;28;20190;-58
2022/01/05 07:56:38;;;;;;;23.70;18.60;;;;;;;6.79;78.27;99012.50;5071558;28;20224;-58
2022/01/05 07:59:05;;;;;;;22.47;17.20;;;;;;;6.74;78.05;99014.97;5062127;28;20201;-57
2022/01/05 08:01:32;;;;;;;23.13;18.50;;;;;;;6.70;78.77;99013.19;5058137;28;20293;-58
2022/01/05 08:03:59;;;;;;;23.90;17.83;;;;;;;6.71;78.24;99014.03;5071786;28;20655;-58
2022/01/05 08:06:28;;;;;;;27.60;22.27;;;;;;;6.88;78.77;99021.25;5071354;28;20520;-58
2022/01/05 08:08:54;;;;;;;30.10;19.30;;;;;;;6.96;78.19;99016.31;5071991;28;20183;-58
2022/01/05 08:11:21;;;;;;;27.70;19.80;;;;;;;7.01;79.07;99024.94;5069914;28;20189;-59
2022/01/05 08:13:48;;;;;;;29.90;20.53;;;;;;;7.06;77.71;99023.34;5051478;28;20276;-59
2022/01/05 08:16:15;;;;;;;30.10;20.40;;;;;;;7.16;77.93;99032.97;5052059;28;20556;-58
2022/01/05 08:18:42;;;;;;;36.63;22.37;;;;;;;7.19;77.95;99034.72;5066082;28;20691;-58
2022/01/05 08:21:09;;;;;;;26.30;20.53;;;;;;;7.13;77.91;99038.00;5071015;28;20226;-58
2022/01/05 08:23:38;;;;;;;32.47;23.13;;;;;;;7.24;77.80;99043.34;5071057;28;20681;-58
2022/01/05 08:26:05;;;;;;;41.90;27.73;;;;;;;7.33;78.25;99036.75;5071226;28;20197;-59
2022/01/05 08:28:33;;;;;;;59.00;34.27;;;;;;;7.36;78.00;99041.06;5071139;28;20661;-59
2022/01/05 08:30:59;;;;;;;49.77;33.03;;;;;;;7.42;77.62;99031.81;5070489;28;20437;-59
2022/01/05 08:33:27;;;;;;;34.10;22.73;;;;;;;7.46;78.05;99020.84;5071327;28;20283;-59
2022/01/05 08:35:54;;;;;;;29.10;22.07;;;;;;;7.55;77.90;99028.69;5071380;28;20547;-59
2022/01/05 08:38:21;;;;;;;28.17;21.37;;;;;;;7.51;77.87;99026.91;5071361;28;20280;-59
2022/01/05 08:40:50;;;;;;;26.80;20.43;;;;;;;7.52;78.19;99012.44;5070720;28;20223;-58
2022/01/05 08:43:17;;;;;;;27.98;22.60;;;;;;;7.46;78.76;99015.75;5070480;28;20511;-58
2022/01/05 08:45:45;;;;;;;24.63;19.73;;;;;;;7.52;78.73;99008.19;5071217;28;20590;-58
2022/01/05 08:48:12;;;;;;;25.23;18.70;;;;;;;7.55;79.03;99000.56;5070871;28;20200;-58
2022/01/05 08:50:40;;;;;;;25.90;19.10;;;;;;;7.48;79.16;99001.28;5071062;28;20790;-58
2022/01/05 08:53:08;;;;;;;24.10;19.37;;;;;;;7.59;78.95;98981.91;5071042;28;20183;-59
2022/01/05 08:55:38;;;;;;;23.00;18.20;;;;;;;7.75;78.43;98988.19;5069582;28;20278;-58
2022/01/05 08:58:07;;;;;;;25.77;19.73;;;;;;;7.59;78.41;98948.69;5069366;28;20280;-58
2022/01/05 09:00:36;;;;;;;30.33;18.07;;;;;;;7.89;78.33;98973.97;5069587;28;20384;-58
2022/01/05 09:03:03;;;;;;;26.60;18.57;;;;;;;7.94;78.48;98966.41;5069644;28;20764;-58
2022/01/05 09:05:31;;;;;;;27.50;20.00;;;;;;;8.14;77.51;98980.38;5070554;28;20289;-58
2022/01/05 09:07:58;;;;;;;23.77;19.13;;;;;;;8.32;77.05;98977.31;5070301;28;20240;-58
2022/01/05 09:10:25;;;;;;;28.27;19.03;;;;;;;8.41;76.76;98973.19;5070036;28;20190;-59
2022/01/05 09:12:53;;;;;;;27.37;19.60;;;;;;;8.40;76.81;98978.31;5066334;28;20191;-59
2022/01/05 09:15:21;;;;;;;29.13;20.70;;;;;;;8.50;76.15;98973.34;5070313;28;20205;-58
2022/01/05 09:17:48;;;;;;;27.03;21.17;;;;;;;8.58;76.14;98964.09;5069864;28;20279;-59
2022/01/05 09:20:16;;;;;;;24.50;19.30;;;;;;;8.71;75.78;98966.00;5069825;28;20215;-58
2022/01/05 09:22:43;;;;;;;29.83;20.43;;;;;;;8.76;75.59;98973.75;5069980;28;20835;-58
2022/01/05 09:25:11;;;;;;;28.03;20.63;;;;;;;8.86;75.02;98960.25;5069592;28;20187;-58
2022/01/05 09:27:39;;;;;;;33.27;23.83;;;;;;;9.02;75.06;98958.75;5069031;28;20229;-58
2022/01/05 09:30:08;;;;;;;30.40;24.40;;;;;;;9.20;74.98;98941.06;5068732;28;20433;-59
2022/01/05 09:32:40;;;;;;;27.20;20.80;;;;;;;9.37;73.57;98948.09;5070152;28;20734;-59
2022/01/05 09:35:10;;;;;;;25.30;19.47;;;;;;;9.40;73.15;98934.47;5068947;28;20221;-58
2022/01/05 09:37:48;;;;;;;22.73;19.30;;;;;;;9.40;73.08;98929.34;5067841;28;20199;-59
2022/01/05 09:43:01;;;;;;;28.87;18.87;;;;;;;9.48;72.90;98922.59;5068719;28;20259;-59
2022/01/05 09:45:33;;;;;;;25.77;20.13;;;;;;;9.54;72.19;98920.09;5067485;28;20202;-58
2022/01/05 09:48:16;;;;;;;28.73;21.13;;;;;;;9.70;72.23;98929.69;5067853;28;20226;-58
2022/01/05 09:50:51;;;;;;;27.63;20.37;;;;;;;9.83;72.18;98918.69;5069236;28;20183;-58
2022/01/05 09:53:18;;;;;;;38.77;21.80;;;;;;;9.92;71.52;98913.66;5067456;28;20286;-59
2022/01/05 09:55:51;;;;;;;33.37;21.27;;;;;;;10.07;70.89;98908.69;5068044;28;20193;-59
2022/01/05 09:58:20;;;;;;;31.03;20.67;;;;;;;10.17;70.17;98901.06;5068089;28;20254;-59
2022/01/05 10:00:47;;;;;;;28.20;21.43;;;;;;;10.35;69.49;98902.09;5058209;28;20260;-59
2022/01/05 10:03:16;;;;;;;34.57;22.70;;;;;;;10.42;69.13;98897.84;5062277;28;20633;-59
2022/01/05 10:05:43;;;;;;;30.00;23.20;;;;;;;10.54;68.64;98896.22;5071355;28;20195;-59
2022/01/05 10:08:10;;;;;;;28.87;21.20;;;;;;;10.66;68.48;98890.28;5069136;28;20238;-59
2022/01/05 10:10:37;;;;;;;27.47;22.77;;;;;;;10.66;68.44;98870.59;5070047;28;20195;-58
2022/01/05 10:13:05;;;;;;;29.27;21.97;;;;;;;10.83;67.75;98885.25;5069876;28;20302;-59
2022/01/05 10:15:31;;;;;;;37.17;25.03;;;;;;;10.91;67.04;98878.44;5072740;28;20194;-58
2022/01/05 10:18:12;;;;;;;32.57;23.10;;;;;;;10.99;67.03;98882.75;5073867;28;20195;-58
2022/01/05 10:20:55;;;;;;;29.27;22.10;;;;;;;11.06;66.29;98876.81;5073863;28;20254;-58
2022/01/05 10:23:36;;;;;;;27.83;20.30;;;;;;;11.14;65.59;98875.13;5073542;28;20231;-59
2022/01/05 10:26:27;;;;;;;32.23;19.53;;;;;;;11.23;64.71;98866.59;5073065;28;20195;-58
2022/01/05 10:28:56;;;;;;;26.07;17.70;;;;;;;11.27;63.78;98858.03;5072795;28;20284;-59
2022/01/05 10:31:25;;;;;;;23.73;17.87;;;;;;;11.20;63.53;98846.88;5072432;28;20630;-59
2022/01/05 10:33:53;;;;;;;27.97;20.00;;;;;;;11.36;62.93;98852.06;5072620;28;20253;-58
2022/01/05 10:36:21;;;;;;;27.83;18.80;;;;;;;11.43;63.03;98848.63;5073275;28;20201;-59
2022/01/05 10:38:56;;;;;;;25.23;19.50;;;;;;;11.50;62.92;98840.09;5073416;28;20193;-59
2022/01/05 10:41:25;;;;;;;29.30;20.60;;;;;;;11.57;62.37;98846.94;5073278;28;20241;-58
2022/01/05 10:44:19;;;;;;;29.73;20.50;;;;;;;11.63;61.99;98844.38;5073163;28;20229;-61
2022/01/05 10:46:49;;;;;;;29.33;19.50;;;;;;;11.60;61.60;98834.97;5072220;28;20198;-58
2022/01/05 10:49:24;;;;;;;28.07;20.57;;;;;;;11.51;61.79;98832.38;5072340;28;20266;-58
2022/01/05 10:51:53;;;;;;;29.30;20.43;;;;;;;11.20;62.21;98792.88;5070337;28;20191;-57
2022/01/05 10:54:21;;;;;;;28.27;21.07;;;;;;;11.43;62.57;98828.91;5072915;28;20274;-58
2022/01/05 10:56:49;;;;;;;26.13;20.63;;;;;;;11.52;62.79;98830.66;5072897;28;20191;-58
2022/01/05 10:59:28;;;;;;;28.53;21.67;;;;;;;11.68;62.35;98834.97;5071194;28;20226;-57
2022/01/05 11:01:56;;;;;;;29.13;23.10;;;;;;;11.70;62.21;98823.00;5057773;28;20443;-58
2022/01/05 11:04:24;;;;;;;28.17;20.13;;;;;;;11.80;61.43;98824.72;5052414;28;20203;-58
2022/01/05 11:06:57;;;;;;;32.23;22.50;;;;;;;11.79;61.25;98818.72;5052549;28;20208;-58
2022/01/05 11:09:24;;;;;;;26.50;21.03;;;;;;;11.86;61.59;98818.72;5051862;28;20188;-57
2022/01/05 11:11:52;;;;;;;28.40;21.23;;;;;;;11.95;60.55;98811.00;5052273;28;20969;-58
2022/01/05 11:14:20;;;;;;;28.43;21.47;;;;;;;11.88;61.09;98796.41;5053169;28;20991;-58
2022/01/05 11:16:50;;;;;;;27.90;22.00;;;;;;;11.91;60.20;98815.28;5054308;28;20693;-58
2022/01/05 11:19:21;;;;;;;38.63;23.63;;;;;;;12.03;60.07;98807.53;5051771;28;20287;-58
2022/01/05 11:22:15;;;;;;;34.47;22.43;;;;;;;12.06;60.24;98804.97;5052135;28;20224;-58
2022/01/05 11:24:43;;;;;;;34.77;24.43;;;;;;;12.04;60.28;98798.97;5058855;28;20203;-58
2022/01/05 11:27:12;;;;;;;26.63;22.63;;;;;;;12.17;59.65;98807.53;5070322;28;20227;-57
2022/01/05 11:29:40;;;;;;;28.70;21.77;;;;;;;12.09;59.73;98792.09;5071351;28;20271;-58
2022/01/05 11:32:09;;;;;;;29.43;21.03;;;;;;;12.10;58.53;98793.81;5071310;28;20191;-58